Hlavní strana
METAR-TAF:

METAR-TAF

Letiště :

Ålesund, Norsko

zeměpisná šířka: 62-34N, zeměpisná délka: 006-07E, výška: 2 m

Aktuální stav počasí

Zpráva byla vytvořena před 10 minutami, v 12:20 UTC
Severoseverovýchodní vítr 3 kt, proměnlivý mezi severozápadním a východoseverovýchodním
Teplota 13°C
Vlhkost vzduchu 82%
Tlak 997 hPa
Viditelnost 10 km a více
Oblačno až skoro zataženo ve výšce 5900 ft

METAR: ENAL 041220Z 02003KT 320V070 9999 BKN059 13/10 Q0997

Čas: 14:30 (12:30 UTC)

Předpověď počasí

Zpráva byla vytvořena před 1 hodinou a 30 minutami, v 11:00 UTC
Předpověď platná od 04 v 12 UTC do 04 v 21 UTC
Východoseverovýchodní vítr 7 kt
Viditelnost 10 km a více
Žádná oblačnost pod 1500 m, nevyskytují se cumulonimby.

TAF: ENAL 041100Z 0412/0421 06007KT CAVOK

Stav a předpovědi počasí z více než 4 000 letišť (zprávy METAR a TAF).

Červené a žluté tečky na mapě představují dostupné meteorologické stanice.

Když kurzor umístíte na tečku, zobrazí se název stanice.

Pak kliknutím zobrazíte stav a předpověď počasí.

Chcete-li změnit mapu, kliknutím na zelené tlačítko se znaménkem +mapu přiblížíte, kliknutím na zelené tlačítko se znaménkem – mapu oddálíte a kliknutím na zelené šipky přejdete na sousední mapy.


METAR-TAF: